createdAt,value
2018-12-09T00:00:24.711Z,6.70
2018-12-09T00:02:54.222Z,6.60
2018-12-09T00:05:23.721Z,6.60
2018-12-09T00:07:53.631Z,6.60
2018-12-09T00:10:23.003Z,6.60
2018-12-09T00:12:52.399Z,6.60
2018-12-09T00:15:22.759Z,6.60
2018-12-09T00:17:52.198Z,6.70
2018-12-09T00:20:22.982Z,6.60
2018-12-09T00:22:52.590Z,6.60
2018-12-09T00:25:23.071Z,6.60
2018-12-09T00:27:52.599Z,6.60
2018-12-09T00:30:22.996Z,6.60
2018-12-09T00:32:52.442Z,6.60
2018-12-09T00:35:21.825Z,6.60
2018-12-09T00:37:51.559Z,6.60
2018-12-09T00:40:21.131Z,6.60
2018-12-09T00:42:50.771Z,6.60
2018-12-09T00:45:31.890Z,6.60
2018-12-09T00:48:01.548Z,6.60
2018-12-09T00:50:30.904Z,6.60
2018-12-09T00:53:00.333Z,6.60
2018-12-09T00:55:29.995Z,6.50
2018-12-09T00:57:59.408Z,6.50
2018-12-09T01:00:29.614Z,6.50
2018-12-09T01:02:59.273Z,6.60
2018-12-09T01:05:28.838Z,6.50
2018-12-09T01:07:58.721Z,6.50
2018-12-09T01:10:28.247Z,6.60
2018-12-09T01:12:57.887Z,6.50
2018-12-09T01:15:27.355Z,6.60
2018-12-09T01:17:57.436Z,6.50
2018-12-09T01:20:26.872Z,6.60
2018-12-09T01:22:56.654Z,6.60
2018-12-09T01:25:26.377Z,6.60
2018-12-09T01:27:56.042Z,6.60
2018-12-09T01:30:25.703Z,6.60
2018-12-09T01:32:55.897Z,6.70
2018-12-09T01:35:25.489Z,6.60
2018-12-09T01:37:55.035Z,6.60
2018-12-09T01:40:24.465Z,6.60
2018-12-09T01:42:54.134Z,6.60
2018-12-09T01:45:25.036Z,6.60
2018-12-09T01:47:55.078Z,6.60
2018-12-09T01:50:24.816Z,6.60
2018-12-09T01:53:00.689Z,6.60
2018-12-09T01:57:58.761Z,6.60
2018-12-09T02:00:29.986Z,6.60
2018-12-09T02:02:59.386Z,6.60
2018-12-09T02:05:29.427Z,6.60
2018-12-09T02:07:58.951Z,6.60
2018-12-09T02:10:28.329Z,6.60
2018-12-09T02:12:58.183Z,6.60
2018-12-09T02:15:27.877Z,6.60
2018-12-09T02:17:57.919Z,6.60
2018-12-09T02:20:27.351Z,6.60
2018-12-09T02:22:56.688Z,6.60
2018-12-09T02:25:26.616Z,6.60
2018-12-09T02:27:55.989Z,6.60
2018-12-09T02:30:26.184Z,6.70
2018-12-09T02:32:55.546Z,6.70
2018-12-09T02:35:24.986Z,6.70
2018-12-09T02:37:54.475Z,6.70
2018-12-09T02:40:23.935Z,6.60
2018-12-09T02:42:53.567Z,6.60
2018-12-09T02:45:24.053Z,6.60
2018-12-09T02:47:54.125Z,6.60
2018-12-09T02:50:23.623Z,6.60
2018-12-09T02:52:53.598Z,6.70
2018-12-09T02:58:03.794Z,6.70
2018-12-09T03:00:34.080Z,6.70
2018-12-09T03:03:03.821Z,6.70
2018-12-09T03:05:33.800Z,6.80
2018-12-09T03:08:03.275Z,6.70
2018-12-09T03:10:32.703Z,6.70
2018-12-09T03:13:02.319Z,6.70
2018-12-09T03:15:31.806Z,6.70
2018-12-09T03:18:01.226Z,6.70
2018-12-09T03:20:30.558Z,6.70
2018-12-09T03:23:00.126Z,6.80
2018-12-09T03:25:29.832Z,6.80
2018-12-09T03:27:59.683Z,6.80
2018-12-09T03:30:29.426Z,6.80
2018-12-09T03:32:58.889Z,6.80
2018-12-09T03:35:28.221Z,6.80
2018-12-09T03:37:58.086Z,6.70
2018-12-09T03:40:27.820Z,6.70
2018-12-09T03:42:57.278Z,6.70
2018-12-09T03:45:27.626Z,6.60
2018-12-09T03:47:57.240Z,6.70
2018-12-09T03:50:27.093Z,6.70
2018-12-09T03:52:56.544Z,6.70
2018-12-09T03:55:26.753Z,6.60
2018-12-09T03:57:56.766Z,6.60
2018-12-09T04:00:27.630Z,6.70
2018-12-09T04:02:57.501Z,6.70
2018-12-09T04:05:26.932Z,6.80
2018-12-09T04:07:56.784Z,6.80
2018-12-09T04:10:26.137Z,6.80
2018-12-09T04:12:55.699Z,6.80
2018-12-09T04:15:25.446Z,6.80
2018-12-09T04:17:55.068Z,6.80
2018-12-09T04:20:24.795Z,6.70
2018-12-09T04:22:59.511Z,6.70
2018-12-09T04:25:28.932Z,6.80
2018-12-09T04:27:58.324Z,6.80
2018-12-09T04:30:28.095Z,6.80
2018-12-09T04:32:57.468Z,6.80
2018-12-09T04:35:27.258Z,6.70
2018-12-09T04:37:56.639Z,6.70
2018-12-09T04:40:26.231Z,6.70
2018-12-09T04:42:55.967Z,6.70
2018-12-09T04:45:25.651Z,6.70
2018-12-09T04:47:55.407Z,6.70
2018-12-09T04:50:24.885Z,6.60
2018-12-09T04:52:54.328Z,6.60
2018-12-09T04:55:24.183Z,6.70
2018-12-09T04:57:53.480Z,6.80
2018-12-09T05:00:35.046Z,6.70
2018-12-09T05:03:04.955Z,6.70
2018-12-09T05:05:37.058Z,6.80
2018-12-09T05:08:06.667Z,6.90
2018-12-09T05:10:36.043Z,7.00
2018-12-09T05:13:05.647Z,6.90
2018-12-09T05:15:35.223Z,6.90
2018-12-09T05:18:04.873Z,6.90
2018-12-09T05:20:34.912Z,6.90
2018-12-09T05:23:04.499Z,6.90
2018-12-09T05:25:34.130Z,6.90
2018-12-09T05:28:03.576Z,6.90
2018-12-09T05:30:33.604Z,6.80
2018-12-09T05:33:03.054Z,6.80
2018-12-09T05:35:32.581Z,6.70
2018-12-09T05:38:01.930Z,6.70
2018-12-09T05:40:31.925Z,6.70
2018-12-09T05:43:01.930Z,6.80
2018-12-09T05:45:31.374Z,6.90
2018-12-09T05:48:06.195Z,6.90
2018-12-09T05:50:41.254Z,6.90
2018-12-09T05:53:10.867Z,6.90
2018-12-09T05:55:40.416Z,7.00
2018-12-09T05:58:10.329Z,7.00
2018-12-09T06:00:39.710Z,7.10
2018-12-09T06:03:09.240Z,7.20
2018-12-09T06:05:39.121Z,7.20
2018-12-09T06:08:08.850Z,7.30
2018-12-09T06:10:38.226Z,7.20
2018-12-09T06:13:13.179Z,7.30
2018-12-09T06:15:43.858Z,7.20
2018-12-09T06:18:13.215Z,7.10
2018-12-09T06:20:42.636Z,7.10
2018-12-09T06:23:12.015Z,7.10
2018-12-09T06:25:41.453Z,7.00
2018-12-09T06:28:11.223Z,7.00
2018-12-09T06:30:40.694Z,7.00
2018-12-09T06:33:10.802Z,7.00
2018-12-09T06:35:40.255Z,7.00
2018-12-09T06:38:09.739Z,7.00
2018-12-09T06:40:39.644Z,7.10
2018-12-09T06:43:09.118Z,7.10
2018-12-09T06:45:38.458Z,7.20
2018-12-09T06:48:07.801Z,7.10
2018-12-09T06:50:37.271Z,7.10
2018-12-09T06:53:06.646Z,7.10
2018-12-09T06:55:36.112Z,7.00
2018-12-09T06:58:05.847Z,6.90
2018-12-09T07:00:36.026Z,6.90
2018-12-09T07:03:05.465Z,6.90
2018-12-09T07:05:35.074Z,7.00
2018-12-09T07:08:04.888Z,6.90
2018-12-09T07:10:34.336Z,7.00
2018-12-09T07:13:03.749Z,7.10
2018-12-09T07:15:33.150Z,7.10
2018-12-09T07:18:02.635Z,7.20
2018-12-09T07:20:31.999Z,7.30
2018-12-09T07:23:01.507Z,7.30
2018-12-09T07:25:30.915Z,7.40
2018-12-09T07:28:00.271Z,7.40
2018-12-09T07:30:29.646Z,7.40
2018-12-09T07:32:59.050Z,7.50
2018-12-09T07:35:28.970Z,7.50
2018-12-09T07:37:58.901Z,7.60
2018-12-09T07:40:28.510Z,7.60
2018-12-09T07:42:58.070Z,7.60
2018-12-09T07:45:27.941Z,7.60
2018-12-09T07:47:57.562Z,7.60
2018-12-09T07:50:27.731Z,7.60
2018-12-09T07:52:57.439Z,7.60
2018-12-09T07:55:26.813Z,7.70
2018-12-09T07:57:56.769Z,7.70
2018-12-09T08:00:28.532Z,7.80
2018-12-09T08:02:58.206Z,7.80
2018-12-09T08:05:27.913Z,7.90
2018-12-09T08:07:57.970Z,7.90
2018-12-09T08:10:27.388Z,7.90
2018-12-09T08:12:57.358Z,7.90
2018-12-09T08:15:26.983Z,7.80
2018-12-09T08:17:56.368Z,7.80
2018-12-09T08:20:25.754Z,7.80
2018-12-09T08:22:55.175Z,7.80
2018-12-09T08:25:25.214Z,7.70
2018-12-09T08:27:54.520Z,7.70
2018-12-09T08:30:24.666Z,7.60
2018-12-09T08:32:54.054Z,7.60
2018-12-09T08:35:24.679Z,7.60
2018-12-09T08:37:54.370Z,7.60
2018-12-09T08:40:24.801Z,7.60
2018-12-09T08:42:54.204Z,7.60
2018-12-09T08:45:24.862Z,7.50
2018-12-09T08:47:54.632Z,7.60
2018-12-09T08:50:24.865Z,7.60
2018-12-09T08:52:55.048Z,7.60
2018-12-09T08:55:25.729Z,7.60
2018-12-09T08:57:55.168Z,7.60
2018-12-09T09:00:26.079Z,7.60
2018-12-09T09:02:55.403Z,7.60
2018-12-09T09:05:25.004Z,7.60
2018-12-09T09:07:54.482Z,7.60
2018-12-09T09:10:24.884Z,7.70
2018-12-09T09:12:54.233Z,7.60
2018-12-09T09:15:23.739Z,7.60
2018-12-09T09:17:53.142Z,7.60
2018-12-09T09:20:22.546Z,7.60
2018-12-09T09:22:52.038Z,7.60
2018-12-09T09:25:22.234Z,7.60
2018-12-09T09:27:51.681Z,7.60
2018-12-09T09:30:21.081Z,7.60
2018-12-09T09:32:50.767Z,7.50
2018-12-09T09:35:20.486Z,7.50
2018-12-09T09:37:49.955Z,7.60
2018-12-09T09:40:19.313Z,7.70
2018-12-09T09:42:48.773Z,7.70
2018-12-09T09:45:18.642Z,7.70
2018-12-09T09:47:48.045Z,7.70
2018-12-09T09:50:17.473Z,7.70
2018-12-09T09:52:46.862Z,7.80
2018-12-09T09:55:16.386Z,7.80
2018-12-09T09:57:45.761Z,7.90
2018-12-09T10:00:15.853Z,8.00
2018-12-09T10:02:45.931Z,8.00
2018-12-09T10:05:15.490Z,8.00
2018-12-09T10:07:44.858Z,8.00
2018-12-09T10:10:14.198Z,8.00
2018-12-09T10:12:43.799Z,8.10
2018-12-09T10:15:13.825Z,8.10
2018-12-09T10:17:43.641Z,8.10
2018-12-09T10:20:13.079Z,8.10
2018-12-09T10:22:42.926Z,8.20
2018-12-09T10:25:12.278Z,8.20
2018-12-09T10:27:41.676Z,8.20
2018-12-09T10:30:11.179Z,8.20
2018-12-09T10:32:40.731Z,8.20
2018-12-09T10:35:10.895Z,8.20
2018-12-09T10:37:40.526Z,8.20
2018-12-09T10:40:09.924Z,8.10
2018-12-09T10:42:39.337Z,8.10
2018-12-09T10:45:08.894Z,8.10
2018-12-09T10:47:38.316Z,8.10
2018-12-09T10:50:08.567Z,8.10
2018-12-09T10:52:37.923Z,8.10
2018-12-09T10:55:07.665Z,8.10
2018-12-09T10:57:37.638Z,8.10
2018-12-09T11:00:12.342Z,8.20
2018-12-09T11:02:41.859Z,8.20
2018-12-09T11:05:11.240Z,8.30
2018-12-09T11:07:40.691Z,8.40
2018-12-09T11:10:10.210Z,8.50
2018-12-09T11:12:39.615Z,8.70
2018-12-09T11:15:08.943Z,8.90
2018-12-09T11:17:38.837Z,9.00
2018-12-09T11:20:08.447Z,9.10
2018-12-09T11:22:37.974Z,9.10
2018-12-09T11:25:07.522Z,9.20
2018-12-09T11:27:36.994Z,9.10
2018-12-09T11:30:07.619Z,9.10
2018-12-09T11:32:37.614Z,9.00
2018-12-09T11:35:07.210Z,8.90
2018-12-09T11:37:36.607Z,8.80
2018-12-09T11:40:06.760Z,8.70
2018-12-09T11:42:36.415Z,8.70
2018-12-09T11:45:06.470Z,8.70
2018-12-09T11:47:36.423Z,8.60
2018-12-09T11:50:08.198Z,8.60
2018-12-09T11:52:37.588Z,8.70
2018-12-09T11:55:07.765Z,8.60
2018-12-09T11:57:37.248Z,8.60
2018-12-09T12:00:11.027Z,8.50
2018-12-09T12:02:40.447Z,8.50
2018-12-09T12:05:10.119Z,8.50
2018-12-09T12:07:39.518Z,8.40
2018-12-09T12:10:09.458Z,8.20
2018-12-09T12:12:38.898Z,8.10
2018-12-09T12:15:08.552Z,8.00
2018-12-09T12:17:38.883Z,8.00
2018-12-09T12:20:11.038Z,8.00
2018-12-09T12:22:40.389Z,7.90
2018-12-09T12:25:09.805Z,7.80
2018-12-09T12:27:39.367Z,7.80
2018-12-09T12:30:08.968Z,7.70
2018-12-09T12:32:38.398Z,7.70
2018-12-09T12:35:08.017Z,7.70
2018-12-09T12:37:37.399Z,7.60
2018-12-09T12:40:07.157Z,7.50
2018-12-09T12:42:36.799Z,7.50
2018-12-09T12:45:07.108Z,7.50
2018-12-09T12:47:36.778Z,7.50
2018-12-09T12:50:06.446Z,7.60
2018-12-09T12:52:42.929Z,7.60
2018-12-09T12:55:12.443Z,7.80
2018-12-09T12:57:42.481Z,7.90
2018-12-09T13:00:17.022Z,7.90
2018-12-09T13:02:46.454Z,7.90
2018-12-09T13:05:16.809Z,7.90
2018-12-09T13:07:46.754Z,7.80
2018-12-09T13:10:16.261Z,7.80
2018-12-09T13:12:45.718Z,7.70
2018-12-09T13:15:15.563Z,7.70
2018-12-09T13:17:45.445Z,7.70
2018-12-09T13:20:17.570Z,7.70
2018-12-09T13:22:47.040Z,7.70
2018-12-09T13:25:16.522Z,7.80
2018-12-09T13:27:46.498Z,7.80
2018-12-09T13:30:16.292Z,7.80
2018-12-09T13:32:46.686Z,7.70
2018-12-09T13:35:16.162Z,7.70
2018-12-09T13:37:46.203Z,7.80
2018-12-09T13:40:15.617Z,7.80
2018-12-09T13:42:45.129Z,7.80
2018-12-09T13:45:15.790Z,7.70
2018-12-09T13:47:45.922Z,7.70
2018-12-09T13:50:16.013Z,7.70
2018-12-09T13:52:45.559Z,7.70
2018-12-09T13:55:15.493Z,7.70
2018-12-09T13:57:44.935Z,7.70
2018-12-09T14:00:19.211Z,7.70
2018-12-09T14:02:49.149Z,7.70
2018-12-09T14:05:18.720Z,7.70
2018-12-09T14:07:48.586Z,7.80
2018-12-09T14:10:18.314Z,7.80
2018-12-09T14:12:48.376Z,7.80
2018-12-09T14:15:17.867Z,7.80
2018-12-09T14:17:47.527Z,7.80
2018-12-09T14:20:17.051Z,7.80
2018-12-09T14:22:47.011Z,7.80
2018-12-09T14:25:16.713Z,7.80
2018-12-09T14:27:46.204Z,7.80
2018-12-09T14:30:15.895Z,7.80
2018-12-09T14:32:45.359Z,7.70
2018-12-09T14:35:15.156Z,7.70
2018-12-09T14:37:44.686Z,7.70
2018-12-09T14:40:14.408Z,7.80
2018-12-09T14:42:43.811Z,7.80
2018-12-09T14:45:13.669Z,7.80
2018-12-09T14:47:43.399Z,7.90
2018-12-09T14:50:13.780Z,7.90
2018-12-09T14:52:43.318Z,7.90
2018-12-09T14:55:12.816Z,7.90
2018-12-09T14:57:42.262Z,7.80
2018-12-09T15:00:12.722Z,7.80
2018-12-09T15:02:42.125Z,7.70
2018-12-09T15:05:11.639Z,7.70
2018-12-09T15:07:41.275Z,7.60
2018-12-09T15:10:11.207Z,7.60
2018-12-09T15:12:40.625Z,7.50
2018-12-09T15:15:10.342Z,7.50
2018-12-09T15:17:39.705Z,7.50
2018-12-09T15:20:09.506Z,7.50
2018-12-09T15:22:38.948Z,7.50
2018-12-09T15:25:09.813Z,7.50
2018-12-09T15:27:39.318Z,7.50
2018-12-09T15:30:09.915Z,7.40
2018-12-09T15:32:39.650Z,7.30
2018-12-09T15:35:09.784Z,7.20
2018-12-09T15:37:39.334Z,7.20
2018-12-09T15:40:09.175Z,7.20
2018-12-09T15:42:38.932Z,7.20
2018-12-09T15:45:08.887Z,7.30
2018-12-09T15:50:18.493Z,7.30
2018-12-09T15:52:47.900Z,7.30
2018-12-09T15:55:17.407Z,7.30
2018-12-09T15:57:46.811Z,7.40
2018-12-09T16:00:17.222Z,7.40
2018-12-09T16:02:46.835Z,7.40
2018-12-09T16:05:16.187Z,7.40
2018-12-09T16:07:45.625Z,7.40
2018-12-09T16:10:15.179Z,7.50
2018-12-09T16:12:44.931Z,7.50
2018-12-09T16:15:14.681Z,7.50
2018-12-09T16:17:44.498Z,7.50
2018-12-09T16:20:14.395Z,7.50
2018-12-09T16:22:44.025Z,7.40
2018-12-09T16:25:13.464Z,7.40
2018-12-09T16:27:43.043Z,7.40
2018-12-09T16:30:12.509Z,7.50
2018-12-09T16:32:41.867Z,7.50
2018-12-09T16:35:11.498Z,7.50
2018-12-09T16:37:40.945Z,7.50
2018-12-09T16:40:10.427Z,7.50
2018-12-09T16:42:39.864Z,7.40
2018-12-09T16:45:10.387Z,7.40
2018-12-09T16:47:39.921Z,7.50
2018-12-09T16:50:09.301Z,7.50
2018-12-09T16:52:39.537Z,7.50
2018-12-09T16:55:09.044Z,7.50
2018-12-09T16:57:38.960Z,7.50
2018-12-09T17:00:08.861Z,7.50
2018-12-09T17:02:38.391Z,7.50
2018-12-09T17:05:07.917Z,7.40
2018-12-09T17:07:42.158Z,7.40
2018-12-09T17:10:08.825Z,7.30
2018-12-09T17:12:38.251Z,7.40
2018-12-09T17:15:07.844Z,7.30
2018-12-09T17:17:37.581Z,7.30
2018-12-09T17:20:07.733Z,7.30
2018-12-09T17:22:37.138Z,7.30
2018-12-09T17:25:06.730Z,7.30
2018-12-09T17:27:36.188Z,7.20
2018-12-09T17:30:06.902Z,7.10
2018-12-09T17:32:36.586Z,7.00
2018-12-09T17:35:06.139Z,7.00
2018-12-09T17:37:35.806Z,7.00
2018-12-09T17:40:07.268Z,7.00
2018-12-09T17:42:36.678Z,6.90
2018-12-09T17:45:06.249Z,6.90
2018-12-09T17:47:36.709Z,6.90
2018-12-09T17:50:06.607Z,6.90
2018-12-09T17:52:36.036Z,6.90
2018-12-09T17:55:12.217Z,6.90
2018-12-09T17:57:41.711Z,6.90
2018-12-09T18:00:11.306Z,6.90
2018-12-09T18:02:40.648Z,7.00
2018-12-09T18:05:10.101Z,7.00
2018-12-09T18:07:40.549Z,7.00
2018-12-09T18:10:09.937Z,7.00
2018-12-09T18:12:47.708Z,7.00
2018-12-09T18:15:16.448Z,7.00
2018-12-09T18:17:45.846Z,7.00
2018-12-09T18:20:15.571Z,7.00
2018-12-09T18:22:45.071Z,6.90
2018-12-09T18:25:15.006Z,6.90
2018-12-09T18:27:44.928Z,6.90
2018-12-09T18:30:14.706Z,6.90
2018-12-09T18:32:47.857Z,6.90
2018-12-09T18:35:17.458Z,6.90
2018-12-09T18:37:46.856Z,6.80
2018-12-09T18:40:16.198Z,6.80
2018-12-09T18:42:45.622Z,6.80
2018-12-09T18:45:15.084Z,6.70
2018-12-09T18:47:44.815Z,6.60
2018-12-09T18:50:14.282Z,6.50
2018-12-09T18:52:44.020Z,6.40
2018-12-09T18:55:14.020Z,6.50
2018-12-09T18:57:43.851Z,6.60
2018-12-09T19:00:13.744Z,6.60
2018-12-09T19:02:43.180Z,6.70
2018-12-09T19:05:13.384Z,6.70
2018-12-09T19:07:43.513Z,6.70
2018-12-09T19:10:13.297Z,6.70
2018-12-09T19:12:42.740Z,6.70
2018-12-09T19:15:13.611Z,6.80
2018-12-09T19:17:43.512Z,6.60
2018-12-09T19:20:13.077Z,6.50
2018-12-09T19:22:43.330Z,6.40
2018-12-09T19:25:12.766Z,6.40
2018-12-09T19:27:42.191Z,6.30
2018-12-09T19:30:12.028Z,6.30
2018-12-09T19:32:42.448Z,6.20
2018-12-09T19:35:12.078Z,6.20
2018-12-09T19:37:41.567Z,6.00
2018-12-09T19:40:11.017Z,5.90
2018-12-09T19:42:41.482Z,5.90
2018-12-09T19:45:10.883Z,5.90
2018-12-09T19:47:41.293Z,5.90
2018-12-09T19:50:10.815Z,5.90
2018-12-09T19:52:40.648Z,5.90
2018-12-09T19:55:12.917Z,5.80
2018-12-09T19:57:42.651Z,5.80
2018-12-09T20:00:12.429Z,5.80
2018-12-09T20:02:41.969Z,5.80
2018-12-09T20:05:11.661Z,5.60
2018-12-09T20:07:41.726Z,5.30
2018-12-09T20:10:11.193Z,5.20
2018-12-09T20:12:41.393Z,5.20
2018-12-09T20:15:10.851Z,5.10
2018-12-09T20:17:40.381Z,5.10
2018-12-09T20:20:10.390Z,5.00
2018-12-09T20:22:40.312Z,4.90
2018-12-09T20:25:09.985Z,4.90
2018-12-09T20:27:39.536Z,4.90
2018-12-09T20:30:10.718Z,5.00
2018-12-09T20:32:40.219Z,4.90
2018-12-09T20:35:10.892Z,4.90
2018-12-09T20:37:40.565Z,4.60
2018-12-09T20:40:10.426Z,4.60
2018-12-09T20:42:48.019Z,4.50
2018-12-09T20:45:12.133Z,4.40
2018-12-09T20:47:41.776Z,4.30
2018-12-09T20:50:11.791Z,4.10
2018-12-09T20:52:44.444Z,4.00
2018-12-09T20:55:14.162Z,3.90
2018-12-09T20:57:45.046Z,3.80
2018-12-09T21:00:15.086Z,3.70
2018-12-09T21:02:44.616Z,3.70
2018-12-09T21:05:14.552Z,3.60
2018-12-09T21:07:44.358Z,3.70
2018-12-09T21:10:14.133Z,3.60
2018-12-09T21:12:43.541Z,3.60
2018-12-09T21:15:13.418Z,3.60
2018-12-09T21:17:43.408Z,3.60
2018-12-09T21:20:12.897Z,3.60
2018-12-09T21:22:42.351Z,3.60
2018-12-09T21:25:12.337Z,3.60
2018-12-09T21:27:41.943Z,3.60
2018-12-09T21:30:11.398Z,3.60
2018-12-09T21:32:40.785Z,3.60
2018-12-09T21:35:10.519Z,3.50
2018-12-09T21:37:40.121Z,3.40
2018-12-09T21:40:09.611Z,3.40
2018-12-09T21:42:39.036Z,3.40
2018-12-09T21:45:08.751Z,3.30
2018-12-09T21:47:38.553Z,3.30
2018-12-09T21:50:08.315Z,3.20
2018-12-09T21:52:37.739Z,3.30
2018-12-09T21:55:10.799Z,3.20
2018-12-09T21:57:40.320Z,3.00
2018-12-09T22:00:10.440Z,2.90
2018-12-09T22:02:39.896Z,2.80
2018-12-09T22:05:09.380Z,2.70
2018-12-09T22:07:38.846Z,2.60
2018-12-09T22:10:08.565Z,2.50
2018-12-09T22:12:38.138Z,2.40
2018-12-09T22:15:07.706Z,2.30
2018-12-09T22:17:37.246Z,2.20
2018-12-09T22:20:06.775Z,2.10
2018-12-09T22:22:36.742Z,2.10
2018-12-09T22:25:06.510Z,2.20
2018-12-09T22:27:36.014Z,2.20
2018-12-09T22:30:06.474Z,2.20
2018-12-09T22:32:35.953Z,2.20
2018-12-09T22:35:05.975Z,2.20
2018-12-09T22:37:35.714Z,2.10
2018-12-09T22:40:06.665Z,2.10
2018-12-09T22:42:36.058Z,2.10
2018-12-09T22:45:06.084Z,2.00
2018-12-09T22:47:36.203Z,2.00
2018-12-09T22:50:05.936Z,2.00
2018-12-09T22:52:35.330Z,1.90
2018-12-09T22:55:05.094Z,1.90
2018-12-09T22:57:34.990Z,1.90
2018-12-09T23:00:08.984Z,1.90
2018-12-09T23:02:44.127Z,1.90
2018-12-09T23:05:13.550Z,2.00
2018-12-09T23:07:48.098Z,2.00
2018-12-09T23:10:17.573Z,2.00
2018-12-09T23:12:47.419Z,2.00
2018-12-09T23:15:22.271Z,1.90
2018-12-09T23:17:51.619Z,1.90
2018-12-09T23:20:21.202Z,2.00
2018-12-09T23:22:50.574Z,2.00
2018-12-09T23:25:20.597Z,1.90
2018-12-09T23:27:50.212Z,1.90
2018-12-09T23:30:19.714Z,1.90
2018-12-09T23:32:49.065Z,1.80
2018-12-09T23:35:18.538Z,1.80
2018-12-09T23:37:48.559Z,1.70
2018-12-09T23:40:18.587Z,1.60
2018-12-09T23:42:49.030Z,1.60
2018-12-09T23:45:18.559Z,1.60
2018-12-09T23:47:48.283Z,1.60
2018-12-09T23:50:17.839Z,1.60
2018-12-09T23:52:47.353Z,1.60
2018-12-09T23:55:16.997Z,1.60
2018-12-09T23:57:46.524Z,1.60
